Time;durP1;ratioP1;P1;durP2;ratioP2;P2;SDS_P1;SDS_P2;PMS_P1;PMS_P2;Temp;Humidity;BMP_temperature;BMP_pressure;BME280_temperature;BME280_humidity;BME280_pressure;Samples;Min_cycle;Max_cycle;Signal;HPM_P1;HPM_P2
2022/04/03 00:00:49;;;;;;;24.37;13.70;;;1.60;99.90;;;-0.46;100.00;99123.75;10386715;28;96527;-78
2022/04/03 00:05:52;;;;;;;24.40;13.23;;;1.60;99.90;;;-0.46;100.00;99123.75;10378775;28;96518;-78
2022/04/03 00:10:55;;;;;;;26.70;12.27;;;1.60;99.90;;;-0.46;100.00;99129.81;10400079;28;98321;-78
2022/04/03 00:15:58;;;;;;;25.70;12.67;;;1.60;99.90;;;-0.47;100.00;99140.38;10362649;28;98172;-78
2022/04/03 00:21:02;;;;;;;22.83;12.40;;;1.60;99.90;;;-0.48;100.00;99147.38;10416927;28;96555;-78
2022/04/03 00:26:06;;;;;;;23.87;12.57;;;1.60;99.90;;;-0.49;100.00;99150.91;10380835;28;96684;-78
2022/04/03 00:31:10;;;;;;;23.00;11.43;;;1.60;99.90;;;-0.50;100.00;99145.81;10350901;28;96483;-78
2022/04/03 00:36:13;;;;;;;27.03;13.87;;;1.60;99.90;;;-0.53;100.00;99159.13;10394679;28;96495;-79
2022/04/03 00:41:19;;;;;;;27.70;13.40;;;1.60;99.90;;;-0.55;100.00;99164.44;10398534;28;96857;-78
2022/04/03 00:46:22;;;;;;;28.17;13.73;;;1.50;99.90;;;-0.60;100.00;99164.84;10355992;28;96588;-79
2022/04/03 00:51:27;;;;;;;30.93;15.50;;;1.50;99.90;;;-0.61;100.00;99167.56;10391283;28;98256;-79
2022/04/03 00:56:32;;;;;;;29.37;14.43;;;1.50;99.90;;;-0.62;100.00;99171.13;10396098;28;96492;-79
2022/04/03 01:01:35;;;;;;;28.73;13.90;;;1.40;99.90;;;-0.62;100.00;99174.56;10394266;28;97245;-79
2022/04/03 01:06:39;;;;;;;31.60;14.23;;;1.50;99.90;;;-0.63;100.00;99178.13;10417083;28;97008;-79
2022/04/03 01:11:45;;;;;;;25.73;13.03;;;1.50;99.90;;;-0.62;100.00;99185.00;10381542;28;96529;-79
2022/04/03 01:16:47;;;;;;;28.97;13.87;;;1.40;99.90;;;-0.64;100.00;99191.28;10415652;28;98622;-80
2022/04/03 01:21:51;;;;;;;30.23;14.47;;;1.40;99.90;;;-0.63;100.00;99192.94;10397190;28;96527;-79
2022/04/03 01:26:54;;;;;;;27.73;14.00;;;1.40;99.90;;;-0.62;100.00;99197.22;10367554;28;96666;-79
2022/04/03 01:31:57;;;;;;;26.23;13.13;;;1.40;99.90;;;-0.62;100.00;99199.81;10400628;28;96603;-80
2022/04/03 01:37:01;;;;;;;28.13;13.27;;;1.50;99.90;;;-0.61;100.00;99215.34;10357984;28;96856;-80
2022/04/03 01:42:04;;;;;;;19.63;10.33;;;1.50;99.90;;;-0.61;100.00;99210.13;10408662;28;97940;-79
2022/04/03 01:47:07;;;;;;;21.30;10.20;;;1.50;99.90;;;-0.61;100.00;99212.72;10397771;28;96470;-80
2022/04/03 01:52:10;;;;;;;16.70;9.00;;;1.50;99.90;;;-0.62;100.00;99210.25;10376117;28;98247;-80
2022/04/03 01:57:13;;;;;;;17.93;9.63;;;1.40;99.90;;;-0.61;100.00;99222.34;10382869;28;98028;-80
2022/04/03 02:02:17;;;;;;;18.37;9.10;;;1.50;99.90;;;-0.61;100.00;99220.56;10391054;28;97934;-80
2022/04/03 02:07:20;;;;;;;21.47;8.93;;;1.50;99.90;;;-0.60;100.00;99226.59;10413649;28;96677;-80
2022/04/03 02:12:23;;;;;;;20.63;11.27;;;1.50;99.90;;;-0.59;100.00;99234.34;10406948;28;98258;-80
2022/04/03 02:17:26;;;;;;;21.47;10.73;;;1.50;99.90;;;-0.58;100.00;99228.16;10395113;28;96557;-80
2022/04/03 02:22:29;;;;;;;18.83;10.00;;;1.50;99.90;;;-0.57;100.00;99232.44;10385318;28;96528;-80
2022/04/03 02:27:32;;;;;;;16.57;8.73;;;1.50;99.90;;;-0.57;100.00;99247.25;10405953;28;96493;-80
2022/04/03 02:32:36;;;;;;;16.10;8.80;;;1.50;99.90;;;-0.58;100.00;99243.81;10410102;28;96693;-80
2022/04/03 02:37:41;;;;;;;17.80;8.73;;;1.50;99.90;;;-0.57;100.00;99253.31;10383873;28;96606;-80
2022/04/03 02:42:44;;;;;;;16.73;8.73;;;1.50;99.90;;;-0.55;100.00;99255.78;10405407;28;96841;-80
2022/04/03 02:47:55;;;;;;;15.60;8.20;;;1.50;99.90;;;-0.57;100.00;99262.91;10374206;28;96565;-79
2022/04/03 02:52:58;;;;;;;15.25;8.15;;;1.50;99.90;;;-0.57;100.00;99270.75;10391533;28;97032;-80
2022/04/03 02:58:01;;;;;;;18.47;8.90;;;1.50;99.90;;;-0.58;100.00;99266.47;10395898;28;96449;-80
2022/04/03 03:03:06;;;;;;;16.50;8.10;;;1.50;99.90;;;-0.56;100.00;99280.22;10393966;28;96589;-79
2022/04/03 03:08:09;;;;;;;16.80;7.73;;;1.50;99.90;;;-0.57;100.00;99292.44;10410145;28;96434;-79
2022/04/03 03:13:12;;;;;;;14.33;7.40;;;1.50;99.90;;;-0.55;100.00;99294.94;10402862;28;98398;-80
2022/04/03 03:18:15;;;;;;;17.50;6.93;;;1.50;99.90;;;-0.56;100.00;99299.31;10382077;28;96585;-80
2022/04/03 03:23:18;;;;;;;11.27;6.03;;;1.50;99.90;;;-0.56;100.00;99304.53;10399711;28;97896;-80
2022/04/03 03:28:21;;;;;;;13.77;7.00;;;1.50;99.90;;;-0.56;100.00;99303.72;10410217;28;96692;-80
2022/04/03 03:33:24;;;;;;;13.13;6.50;;;1.50;99.90;;;-0.56;100.00;99322.81;10418478;28;96515;-80
2022/04/03 03:38:27;;;;;;;10.50;5.83;;;1.50;99.90;;;-0.56;100.00;99317.59;10403135;28;96797;-80
2022/04/03 03:43:30;;;;;;;13.17;7.13;;;1.50;99.90;;;-0.57;100.00;99318.53;10407567;28;96697;-80
2022/04/03 03:48:34;;;;;;;17.37;8.80;;;1.50;99.90;;;-0.58;100.00;99318.66;10407549;28;97779;-80
2022/04/03 03:53:37;;;;;;;25.77;11.87;;;1.50;99.90;;;-0.57;100.00;99325.53;10377592;28;96842;-80
2022/04/03 03:58:39;;;;;;;17.47;8.27;;;1.50;99.90;;;-0.58;100.00;99334.31;10394957;28;96961;-80
2022/04/03 04:03:43;;;;;;;15.33;8.10;;;1.50;99.90;;;-0.59;100.00;99340.50;10384888;28;96512;-80
2022/04/03 04:08:46;;;;;;;16.07;8.00;;;1.50;99.90;;;-0.60;100.00;99349.25;10377445;28;96496;-80
2022/04/03 04:13:49;;;;;;;14.03;8.17;;;1.50;99.90;;;-0.60;100.00;99357.94;10417525;28;96673;-80
2022/04/03 04:18:52;;;;;;;14.70;8.47;;;1.50;99.90;;;-0.60;100.00;99367.53;10387199;28;96549;-80
2022/04/03 04:23:55;;;;;;;16.27;7.07;;;1.50;99.90;;;-0.59;100.00;99369.19;10378953;28;96483;-80
2022/04/03 04:28:58;;;;;;;15.43;7.47;;;1.50;99.90;;;-0.57;100.00;99380.34;10400529;28;97040;-80
2022/04/03 04:34:03;;;;;;;13.30;6.20;;;1.50;99.90;;;-0.56;100.00;99387.22;10384395;28;96749;-80
2022/04/03 04:39:06;;;;;;;14.03;6.53;;;1.50;99.90;;;-0.54;100.00;99400.97;10392709;28;96569;-80
2022/04/03 04:44:10;;;;;;;15.53;7.07;;;1.50;99.90;;;-0.53;100.00;99410.50;10404619;27;96523;-80
2022/04/03 04:49:14;;;;;;;15.67;8.20;;;1.50;99.90;;;-0.52;100.00;99419.97;10394765;28;96574;-80
2022/04/03 04:54:17;;;;;;;14.90;6.77;;;1.60;99.90;;;-0.51;100.00;99415.59;10416777;28;96651;-80
2022/04/03 04:59:20;;;;;;;22.23;10.83;;;1.60;99.90;;;-0.52;100.00;99416.53;10417608;28;96382;-80
2022/04/03 05:04:23;;;;;;;14.30;7.93;;;1.60;99.90;;;-0.50;100.00;99423.28;10407223;28;96604;-80
2022/04/03 05:09:26;;;;;;;11.30;6.80;;;1.50;99.90;;;-0.47;100.00;99436.13;10357834;28;96681;-80
2022/04/03 05:14:29;;;;;;;10.53;6.30;;;1.60;99.90;;;-0.42;100.00;99441.84;10397152;28;96587;-80
2022/04/03 05:19:34;;;;;;;13.20;6.77;;;1.60;99.90;;;-0.39;100.00;99438.97;10383641;28;97894;-79
2022/04/03 05:24:36;;;;;;;15.00;6.83;;;1.70;99.90;;;-0.35;100.00;99457.84;10383923;28;96656;-80
2022/04/03 05:29:40;;;;;;;14.83;7.70;;;1.70;99.90;;;-0.30;100.00;99456.56;10409159;28;96831;-80
2022/04/03 05:34:43;;;;;;;16.67;8.20;;;1.80;99.90;;;-0.22;100.00;99468.19;10419890;28;96422;-79
2022/04/03 05:39:47;;;;;;;13.67;7.30;;;1.80;99.90;;;-0.18;100.00;99474.81;10400087;28;96923;-79
2022/04/03 05:44:49;;;;;;;15.57;8.17;;;1.90;99.90;;;-0.15;100.00;99480.66;10371734;28;97158;-78
2022/04/03 05:49:52;;;;;;;14.23;7.30;;;1.90;99.90;;;-0.11;100.00;99481.25;10412375;28;96653;-78
2022/04/03 05:54:55;;;;;;;11.70;6.10;;;1.90;99.90;;;-0.06;100.00;99479.97;10414607;28;97208;-78
2022/04/03 05:59:58;;;;;;;9.80;5.70;;;2.00;99.90;;;-0.04;100.00;99487.69;10414101;28;97527;-77
2022/04/03 06:05:02;;;;;;;8.97;5.03;;;2.00;99.90;;;0.04;100.00;99498.34;10337274;28;96657;-77
2022/04/03 06:10:06;;;;;;;9.97;5.97;;;2.10;99.90;;;0.08;100.00;99504.19;10387427;28;96502;-77
2022/04/03 06:15:09;;;;;;;10.43;6.57;;;2.10;99.90;;;0.13;100.00;99508.13;10391728;28;97919;-77
2022/04/03 06:20:11;;;;;;;10.63;6.00;;;2.20;99.90;;;0.17;100.00;99514.75;10408075;28;98307;-77
2022/04/03 06:25:14;;;;;;;9.70;6.70;;;2.20;99.90;;;0.21;100.00;99523.19;10412470;28;96569;-76
2022/04/03 06:30:18;;;;;;;12.13;8.23;;;2.30;99.90;;;0.26;100.00;99524.50;10413567;28;96779;-76
2022/04/03 06:35:21;;;;;;;13.60;7.57;;;2.30;99.90;;;0.34;100.00;99525.69;10358447;28;96541;-76
2022/04/03 06:40:24;;;;;;;11.33;7.60;;;2.40;99.90;;;0.40;100.00;99535.66;10390427;28;97178;-76
2022/04/03 06:45:28;;;;;;;14.53;8.00;;;2.40;99.90;;;0.42;100.00;99549.44;10411977;28;98067;-76
2022/04/03 06:50:30;;;;;;;11.77;6.90;;;2.50;99.90;;;0.45;100.00;99563.09;10395928;28;96899;-76
2022/04/03 06:55:34;;;;;;;11.87;7.40;;;2.50;99.90;;;0.46;100.00;99562.16;10380568;28;96824;-76
2022/04/03 07:00:38;;;;;;;16.17;9.30;;;2.50;99.90;;;0.49;100.00;99575.00;10398206;28;96658;-75
2022/04/03 07:05:40;;;;;;;14.43;8.70;;;2.50;99.90;;;0.55;100.00;99585.94;10384002;28;96811;-77
2022/04/03 07:10:44;;;;;;;16.97;10.43;;;2.60;99.90;;;0.63;100.00;99589.59;10404015;27;97516;-78
2022/04/03 07:15:49;;;;;;;15.60;9.90;;;2.70;99.90;;;0.73;100.00;99601.03;10375761;28;98453;-78
2022/04/03 07:20:52;;;;;;;17.77;11.40;;;2.80;99.90;;;0.84;100.00;99612.41;10387320;28;96685;-77
2022/04/03 07:25:54;;;;;;;16.93;10.03;;;2.80;99.90;;;0.97;100.00;99618.34;10421000;28;96422;-77
2022/04/03 07:30:58;;;;;;;19.70;11.40;;;3.00;99.90;;;1.16;100.00;99636.06;10420213;28;96519;-77
2022/04/03 07:36:03;;;;;;;27.23;13.80;;;3.20;99.90;;;1.33;100.00;99638.16;10409119;28;97830;-77
2022/04/03 07:41:06;;;;;;;24.10;12.90;;;3.30;99.90;;;1.53;100.00;99641.78;10396420;28;98495;-77
2022/04/03 07:46:15;;;;;;;19.90;12.60;;;3.50;99.90;;;1.64;100.00;99643.53;10395785;28;98345;-78
2022/04/03 07:51:18;;;;;;;21.90;11.57;;;3.70;99.90;;;1.72;100.00;99665.53;10386175;28;96934;-78
2022/04/03 07:56:21;;;;;;;19.10;12.13;;;3.70;99.90;;;1.85;100.00;99667.97;10393183;28;96690;-77
2022/04/03 08:01:24;;;;;;;20.47;12.27;;;3.90;99.90;;;1.92;100.00;99678.78;10402392;28;96477;-78
2022/04/03 08:06:28;;;;;;;17.93;12.00;;;3.90;99.90;;;1.91;100.00;99677.13;10334785;28;96531;-78
2022/04/03 08:11:31;;;;;;;27.13;14.00;;;4.00;99.90;;;1.87;100.00;99681.81;10380197;28;96653;-76
2022/04/03 08:16:34;;;;;;;88.60;48.93;;;4.00;99.90;;;1.80;100.00;99683.22;10427469;27;96605;-78
2022/04/03 08:21:37;;;;;;;35.53;19.77;;;3.80;99.90;;;1.89;100.00;99690.34;10416403;28;96566;-76
2022/04/03 08:26:41;;;;;;;24.27;16.53;;;3.80;99.90;;;2.34;100.00;99685.75;10334421;28;96377;-78
2022/04/03 08:31:44;;;;;;;30.23;17.80;;;4.00;99.90;;;2.77;100.00;99689.19;10389221;28;97700;-78
2022/04/03 08:36:46;;;;;;;25.90;16.83;;;4.30;99.90;;;3.26;100.00;99690.22;10398933;28;96587;-78
2022/04/03 08:41:49;;;;;;;24.33;14.60;;;4.60;99.90;;;3.74;98.68;99699.03;10406014;28;96630;-78
2022/04/03 08:46:53;;;;;;;20.27;13.97;;;4.90;99.90;;;4.15;96.71;99704.19;10400978;28;96442;-78
2022/04/03 08:51:57;;;;;;;19.63;13.00;;;5.20;99.90;;;4.48;93.23;99705.50;10408610;28;96571;-77
2022/04/03 08:57:00;;;;;;;18.50;13.20;;;5.50;99.90;;;4.78;91.06;99707.94;10416400;28;96544;-77
2022/04/03 09:02:03;;;;;;;20.40;11.33;;;5.70;99.90;;;4.91;89.20;99712.88;10416285;28;96563;-76
2022/04/03 09:07:06;;;;;;;17.33;11.90;;;5.90;99.90;;;4.79;85.70;99716.66;10415474;28;96783;-77
2022/04/03 09:12:12;;;;;;;23.33;12.27;;;6.00;99.90;;;4.78;85.69;99726.38;10403553;28;96629;-77
2022/04/03 09:17:44;;;;;;;18.60;11.73;;;6.10;99.90;;;4.81;84.97;99725.28;10405944;27;96680;-77
2022/04/03 09:23:17;;;;;;;17.60;11.43;;;6.30;99.90;;;5.03;84.53;99724.91;10382636;28;96589;-77
2022/04/03 09:28:20;;;;;;;18.77;10.27;;;6.50;99.90;;;5.50;83.96;99724.84;10398543;28;96619;-78
2022/04/03 09:33:24;;;;;;;14.33;9.10;;;6.80;99.90;;;6.14;81.10;99726.56;10415689;28;97421;-77
2022/04/03 09:38:30;;;;;;;14.67;9.27;;;7.30;99.90;;;6.54;75.15;99719.97;10416002;28;96605;-77
2022/04/03 09:43:40;;;;;;;14.80;9.97;;;7.60;99.90;;;6.75;75.26;99734.63;10407745;28;96645;-77
2022/04/03 09:48:44;;;;;;;20.52;9.90;;;7.90;99.90;;;7.05;72.39;99742.09;10413689;28;97822;-77
2022/04/03 09:53:52;;;;;;;12.33;8.17;;;8.20;99.90;;;7.55;70.86;99743.16;10414180;28;96427;-78
2022/04/03 09:59:03;;;;;;;13.23;8.77;;;8.60;99.90;;;7.87;68.78;99743.25;10397089;28;96509;-77
2022/04/03 10:04:09;;;;;;;14.52;9.45;;;8.90;99.90;;;8.00;66.49;99738.34;10413448;28;96734;-77
2022/04/03 10:09:12;;;;;;;13.30;8.67;;;9.20;99.90;;;7.87;65.16;99743.25;10397616;28;96501;-77
2022/04/03 10:14:20;;;;;;;14.47;8.37;;;9.20;99.90;;;7.76;63.92;99740.91;10386250;28;98442;-77
2022/04/03 10:19:23;;;;;;;16.53;8.53;;;9.20;97.30;;;7.57;64.06;99749.94;10372653;28;97337;-78
2022/04/03 10:24:29;;;;;;;12.20;8.50;;;9.10;97.10;;;7.55;62.53;99756.38;10377261;28;96555;-77
2022/04/03 10:29:37;;;;;;;19.07;8.53;;;9.10;94.50;;;7.62;63.57;99752.13;10371806;27;98443;-77
2022/04/03 10:34:54;;;;;;;11.47;8.10;;;9.20;94.60;;;7.56;61.92;99758.00;10363297;28;97990;-77
2022/04/03 10:40:10;;;;;;;11.70;8.10;;;9.10;87.60;;;7.34;60.82;99775.28;10397369;28;96511;-78
2022/04/03 10:45:13;;;;;;;14.83;8.27;;;9.00;90.70;;;6.96;60.40;99780.03;10398369;28;97132;-77
2022/04/03 10:50:16;;;;;;;12.87;8.07;;;8.70;91.00;;;6.57;59.85;99768.97;10421486;28;96502;-78
2022/04/03 10:55:36;;;;;;;15.73;8.83;;;8.30;89.60;;;6.16;61.97;99781.78;10401841;28;96552;-76
2022/04/03 11:00:41;;;;;;;12.80;8.10;;;8.00;90.20;;;5.86;62.27;99786.38;10411871;28;96726;-77
2022/04/03 11:05:48;;;;;;;11.53;8.03;;;7.70;91.20;;;5.84;64.55;99792.81;10421820;28;97707;-77
2022/04/03 11:10:54;;;;;;;15.93;8.33;;;7.60;92.80;;;5.94;62.99;99793.63;10382285;28;96540;-77
2022/04/03 11:16:00;;;;;;;12.00;8.10;;;7.70;91.40;;;5.95;61.69;99805.81;10404764;28;96521;-77
2022/04/03 11:21:16;;;;;;;15.60;7.60;;;7.60;88.10;;;5.96;61.14;99802.19;10423161;28;96478;-78
2022/04/03 11:26:20;;;;;;;10.73;7.67;;;7.70;86.30;;;6.26;61.53;99806.31;10402767;28;96514;-77
2022/04/03 11:31:33;;;;;;;13.50;7.73;;;7.90;91.10;;;6.51;60.26;99809.19;10377309;28;96665;-77
2022/04/03 11:36:36;;;;;;;11.80;7.23;;;8.10;84.80;;;6.19;59.91;99825.53;10378283;28;96689;-77
2022/04/03 11:41:39;;;;;;;14.33;8.13;;;7.90;85.70;;;5.88;60.73;99833.75;10419786;28;97304;-78
2022/04/03 11:46:49;;;;;;;10.20;7.40;;;7.70;85.90;;;5.75;60.57;99849.03;10418170;28;96470;-77
2022/04/03 11:51:55;;;;;;;14.07;8.07;;;7.60;85.90;;;5.81;62.29;99851.09;10391648;28;96667;-78
2022/04/03 11:57:01;;;;;;;14.00;7.77;;;7.50;86.30;;;5.69;58.78;99842.53;10351965;28;96494;-77
2022/04/03 12:02:15;;;;;;;12.53;7.43;;;7.50;82.30;;;5.55;59.70;99851.75;10415376;28;96616;-77
2022/04/03 12:07:18;;;;;;;8.73;5.90;;;7.30;81.40;;;5.81;58.95;99845.81;10385390;28;96643;-78
2022/04/03 12:12:25;;;;;;;9.67;6.10;;;7.50;84.10;;;6.23;58.67;99840.91;10362468;28;97049;-78
2022/04/03 12:17:28;;;;;;;11.17;6.83;;;7.80;83.80;;;6.76;57.30;99834.00;10396710;28;96941;-78
2022/04/03 12:22:31;;;;;;;9.63;5.57;;;8.40;79.00;;;6.98;55.97;99833.50;10393051;28;96767;-77
2022/04/03 12:27:37;;;;;;;10.20;6.27;;;8.70;77.10;;;7.42;54.83;99828.19;10365729;28;96512;-78
2022/04/03 12:32:43;;;;;;;11.13;6.70;;;9.10;75.70;;;7.93;55.28;99827.28;10407180;28;96554;-78
2022/04/03 12:37:46;;;;;;;10.67;7.20;;;9.60;77.30;;;7.80;52.09;99824.25;10360282;28;96512;-78
2022/04/03 12:42:49;;;;;;;12.37;6.77;;;9.70;73.40;;;7.64;51.30;99826.81;10374891;28;96505;-78
2022/04/03 12:48:01;;;;;;;9.40;6.77;;;9.60;71.40;;;7.59;51.39;99823.81;10396484;28;96665;-78
2022/04/03 12:53:06;;;;;;;11.60;7.07;;;9.50;69.60;;;7.71;50.66;99826.03;10395873;27;96646;-78
2022/04/03 12:58:24;;;;;;;10.27;6.93;;;9.60;69.30;;;7.69;49.26;99838.59;10375735;28;97093;-78
2022/04/03 13:03:31;;;;;;;9.53;6.70;;;9.70;68.60;;;7.96;50.35;99831.41;10390343;27;98073;-79
2022/04/03 13:08:54;;;;;;;10.57;6.93;;;10.00;69.20;;;8.06;50.57;99834.75;10357464;28;96615;-79
2022/04/03 13:14:22;;;;;;;11.30;7.13;;;9.90;63.60;;;7.71;49.94;99833.97;10364393;28;96575;-79
2022/04/03 13:19:27;;;;;;;10.67;6.00;;;9.60;66.00;;;7.61;49.66;99835.88;10373121;28;98310;-78
2022/04/03 13:24:30;;;;;;;10.73;7.20;;;9.50;66.90;;;7.22;49.54;99840.78;10379130;28;96622;-79
2022/04/03 13:29:37;;;;;;;11.67;7.23;;;9.20;65.30;;;6.79;49.93;99836.34;10387939;28;96438;-78
2022/04/03 13:34:40;;;;;;;10.80;7.40;;;8.70;66.70;;;6.90;52.80;99838.75;10411881;28;96627;-79
2022/04/03 13:39:43;;;;;;;9.47;7.10;;;8.80;70.10;;;7.34;50.68;99842.19;10382937;28;96563;-77
2022/04/03 13:44:46;;;;;;;10.63;6.13;;;9.20;67.40;;;7.46;49.56;99848.03;10373423;28;96542;-77
2022/04/03 13:49:49;;;;;;;9.60;6.57;;;9.40;66.00;;;7.06;48.95;99846.78;10374742;28;97258;-77
2022/04/03 13:54:52;;;;;;;8.43;6.33;;;9.10;65.20;;;6.70;50.77;99851.25;10390019;28;97048;-78
2022/04/03 13:59:56;;;;;;;7.53;5.90;;;8.70;65.30;;;6.94;50.74;99855.94;10375233;28;96551;-77
2022/04/03 14:04:59;;;;;;;7.87;6.07;;;8.80;66.60;;;7.12;49.03;99854.09;10379247;27;96595;-78
2022/04/03 14:10:02;;;;;;;12.63;6.53;;;9.00;65.00;;;7.25;49.30;99859.78;10408661;28;96628;-78
2022/04/03 14:15:08;;;;;;;9.10;5.70;;;9.10;65.90;;;7.01;49.33;99862.25;10362532;28;96672;-77
2022/04/03 14:20:11;;;;;;;9.93;6.17;;;8.90;64.30;;;6.80;48.98;99864.41;10320522;28;96406;-79
2022/04/03 14:25:14;;;;;;;8.33;6.23;;;8.70;64.60;;;6.82;48.15;99865.91;10405718;28;96559;-78
2022/04/03 14:30:17;;;;;;;11.37;6.83;;;8.70;63.00;;;7.01;48.86;99870.19;10396079;28;96492;-77
2022/04/03 14:35:20;;;;;;;10.27;6.40;;;8.80;65.20;;;7.27;48.57;99872.06;10403990;28;96572;-79
2022/04/03 14:40:23;;;;;;;8.30;6.20;;;9.10;64.20;;;7.23;47.48;99872.34;10406501;28;96628;-78
2022/04/03 14:45:26;;;;;;;11.67;6.73;;;9.10;60.60;;;6.74;48.04;99872.94;10409238;28;96635;-78
2022/04/03 14:50:30;;;;;;;9.63;6.50;;;8.70;62.60;;;6.30;48.36;99884.22;10356406;28;96435;-77
2022/04/03 14:55:33;;;;;;;8.40;5.90;;;8.20;63.40;;;6.52;50.87;99888.22;10411755;28;96880;-77
2022/04/03 15:00:36;;;;;;;9.37;6.13;;;8.30;66.10;;;6.95;50.51;99874.25;10360641;28;96571;-77
2022/04/03 15:05:40;;;;;;;11.17;6.10;;;8.70;64.60;;;7.05;48.73;99879.47;10415861;28;96478;-77
2022/04/03 15:10:43;;;;;;;9.03;5.80;;;8.80;62.80;;;7.17;48.24;99888.81;10412305;28;96505;-78
2022/04/03 15:15:46;;;;;;;10.70;6.57;;;8.90;63.70;;;6.83;48.63;99896.59;10401193;28;96511;-77
2022/04/03 15:20:49;;;;;;;12.20;7.47;;;8.70;62.80;;;6.36;49.56;99903.91;10417260;28;97169;-78
2022/04/03 15:25:52;;;;;;;11.40;6.30;;;8.30;63.30;;;6.33;50.93;99909.47;10429773;27;96563;-77
2022/04/03 15:30:56;;;;;;;9.50;6.40;;;8.20;65.00;;;6.17;48.45;99916.19;10377984;28;96671;-77
2022/04/03 15:36:00;;;;;;;10.30;6.57;;;8.10;64.30;;;5.87;49.30;99925.19;10405662;28;97586;-77
2022/04/03 15:41:03;;;;;;;11.17;6.53;;;7.80;64.70;;;5.84;50.36;99935.19;10414251;28;97064;-77
2022/04/03 15:46:07;;;;;;;8.43;6.13;;;7.60;64.20;;;5.59;50.29;99940.13;10396154;27;96667;-78
2022/04/03 15:51:10;;;;;;;10.90;6.83;;;7.40;64.60;;;5.53;49.23;99942.50;10360726;28;96507;-77
2022/04/03 15:56:14;;;;;;;11.60;6.53;;;7.30;64.00;;;5.55;50.71;99949.28;10365224;28;97671;-79
2022/04/03 16:01:19;;;;;;;12.00;7.40;;;7.30;64.70;;;5.50;50.75;99951.50;10394271;28;97010;-78
2022/04/03 16:06:22;;;;;;;12.07;6.80;;;7.30;65.00;;;5.31;50.96;99956.81;10390222;28;96541;-78
2022/04/03 16:11:28;;;;;;;13.43;7.80;;;7.10;65.90;;;5.01;49.38;99969.13;10374024;28;96675;-78
2022/04/03 16:16:32;;;;;;;16.00;8.83;;;6.80;64.80;;;4.64;51.11;99971.59;10351495;28;96665;-76
2022/04/03 16:21:36;;;;;;;13.40;7.23;;;6.50;65.10;;;4.24;51.26;99985.59;10378387;28;96514;-77
2022/04/03 16:26:39;;;;;;;13.33;7.33;;;6.20;65.70;;;3.85;52.18;100000.34;10405039;28;96977;-77
2022/04/03 16:31:42;;;;;;;10.70;7.10;;;5.80;67.40;;;3.56;53.87;99997.53;10375832;28;96722;-77
2022/04/03 16:36:45;;;;;;;11.73;6.73;;;5.50;67.60;;;3.34;54.24;100023.91;10389635;28;96567;-77
2022/04/03 16:41:48;;;;;;;12.57;7.37;;;5.30;68.20;;;3.12;53.20;100025.69;10414578;28;96566;-78
2022/04/03 16:46:51;;;;;;;15.17;8.27;;;5.00;66.90;;;2.92;53.71;100035.13;10373540;28;97277;-77
2022/04/03 16:51:54;;;;;;;13.53;7.07;;;4.90;68.40;;;2.74;55.26;100047.09;10414939;28;96752;-77
2022/04/03 16:56:58;;;;;;;16.37;8.63;;;4.70;70.10;;;2.58;55.33;100060.63;10369192;28;96838;-77
2022/04/03 17:02:01;;;;;;;14.27;8.33;;;4.60;69.10;;;2.45;56.52;100075.59;10386214;28;96572;-78
2022/04/03 17:07:04;;;;;;;11.87;7.43;;;4.40;71.10;;;2.30;55.81;100069.78;10373526;28;97042;-77
2022/04/03 17:12:08;;;;;;;12.70;7.40;;;4.30;70.30;;;2.14;57.42;100082.38;10401135;28;96624;-78
2022/04/03 17:17:11;;;;;;;11.37;7.40;;;4.20;71.80;;;2.00;56.59;100090.47;10375072;28;98211;-77
2022/04/03 17:22:18;;;;;;;14.77;7.97;;;4.00;70.20;;;1.84;57.81;100096.00;10376602;28;96595;-77
2022/04/03 17:27:22;;;;;;;12.40;7.40;;;3.90;72.50;;;1.67;58.88;100104.28;10412421;28;96890;-76
2022/04/03 17:32:26;;;;;;;18.80;9.23;;;3.80;73.30;;;1.49;59.74;100112.53;10383709;28;98067;-77
2022/04/03 17:37:29;;;;;;;13.17;6.93;;;3.60;73.80;;;1.32;60.49;100115.56;10375387;28;97048;-77
2022/04/03 17:42:32;;;;;;;13.73;7.83;;;3.50;74.90;;;1.17;61.52;100132.38;10355668;28;96796;-77
2022/04/03 17:47:34;;;;;;;14.83;6.93;;;3.40;75.70;;;1.05;60.98;100144.53;10371264;28;96836;-76
2022/04/03 17:52:38;;;;;;;12.30;6.90;;;3.20;75.20;;;0.95;60.50;100141.72;10355166;28;96623;-77
2022/04/03 17:57:42;;;;;;;14.33;7.90;;;3.10;75.30;;;0.83;60.37;100149.59;10371396;28;96540;-76
2022/04/03 18:02:45;;;;;;;16.67;9.23;;;3.00;75.70;;;0.73;61.27;100160.72;10371794;28;97091;-76
2022/04/03 18:07:48;;;;;;;15.93;9.17;;;2.90;76.20;;;0.61;62.71;100172.03;10353093;28;96554;-78
2022/04/03 18:12:50;;;;;;;18.17;9.27;;;2.80;77.60;;;0.47;63.45;100177.34;10373246;28;97883;-78
2022/04/03 18:17:54;;;;;;;16.87;8.23;;;2.70;79.00;;;0.33;62.79;100191.34;10367040;28;96584;-77
2022/04/03 18:23:17;;;;;;;13.63;7.47;;;2.60;77.10;;;0.33;61.58;100209.66;10371579;28;98349;-76
2022/04/03 18:28:25;;;;;;;13.67;6.97;;;2.50;76.50;;;0.24;62.59;100211.13;10381050;28;96999;-77
2022/04/03 18:33:28;;;;;;;9.37;5.60;;;2.40;78.70;;;0.14;63.50;100214.44;10373983;28;96540;-77
2022/04/03 18:38:31;;;;;;;13.80;5.80;;;2.40;79.60;;;0.04;64.13;100234.25;10375244;28;96676;-77
2022/04/03 18:43:34;;;;;;;12.53;6.47;;;2.30;79.50;;;-0.12;65.31;100245.72;10373578;28;96509;-77
2022/04/03 18:48:37;;;;;;;11.53;6.37;;;2.20;80.50;;;-0.24;65.70;100245.63;10379427;28;96489;-77
2022/04/03 18:53:41;;;;;;;14.07;6.60;;;2.10;81.10;;;-0.37;65.81;100249.03;10366654;28;97035;-77
2022/04/03 18:58:45;;;;;;;13.87;7.20;;;2.00;81.70;;;-0.42;65.50;100251.09;10399101;28;96647;-77
2022/04/03 19:03:48;;;;;;;11.13;5.70;;;1.90;81.20;;;-0.36;63.47;100248.09;10408884;27;96642;-78
2022/04/03 19:08:51;;;;;;;12.60;6.13;;;1.90;78.10;;;-0.30;64.24;100252.06;10397967;28;98082;-77
2022/04/03 19:13:54;;;;;;;11.57;6.63;;;1.90;80.30;;;-0.36;63.65;100263.78;10365518;28;97824;-77
2022/04/03 19:18:56;;;;;;;14.10;7.07;;;1.90;78.40;;;-0.39;64.66;100287.44;10385536;28;96996;-77
2022/04/03 19:23:59;;;;;;;14.70;6.93;;;1.90;81.60;;;-0.50;65.66;100279.44;10401333;28;96578;-77
2022/04/03 19:29:03;;;;;;;9.77;5.67;;;1.80;82.40;;;-0.63;66.38;100275.94;10394432;28;96978;-78
2022/04/03 19:34:06;;;;;;;15.50;6.23;;;1.70;83.10;;;-0.74;66.31;100284.41;10397087;28;97161;-78
2022/04/03 19:39:09;;;;;;;22.50;8.70;;;1.60;85.10;;;-0.78;65.89;100293.38;10371191;28;97577;-77
2022/04/03 19:44:12;;;;;;;24.43;8.90;;;1.50;81.80;;;-0.83;66.85;100288.44;10375297;28;96721;-77
2022/04/03 19:49:20;;;;;;;19.17;7.80;;;1.50;84.40;;;-0.86;66.49;100293.81;10383472;28;98213;-78
2022/04/03 19:54:24;;;;;;;10.37;6.43;;;1.40;84.10;;;-0.98;68.30;100302.38;10383564;28;96598;-78
2022/04/03 19:59:27;;;;;;;9.20;4.93;;;1.40;86.50;;;-1.07;67.77;100302.94;10364388;28;96595;-77
2022/04/03 20:04:30;;;;;;;7.37;4.37;;;1.30;85.50;;;-1.13;68.18;100303.31;10368560;28;96524;-78
2022/04/03 20:09:33;;;;;;;8.33;5.23;;;1.20;85.50;;;-1.17;67.32;100302.66;10375506;28;96843;-77
2022/04/03 20:14:36;;;;;;;13.30;6.93;;;1.20;84.40;;;-1.20;68.09;100315.00;10380641;28;96608;-77
2022/04/03 20:19:40;;;;;;;12.67;7.37;;;1.10;87.10;;;-1.31;68.34;100317.44;10390424;28;96903;-77
2022/04/03 20:24:43;;;;;;;12.43;7.10;;;1.00;87.40;;;-1.37;69.25;100326.44;10376777;28;96719;-78
2022/04/03 20:29:46;;;;;;;16.77;8.00;;;1.00;89.40;;;-1.40;69.30;100324.84;10401454;28;96536;-76
2022/04/03 20:34:50;;;;;;;18.47;8.07;;;0.90;89.40;;;-1.39;69.55;100329.13;10380209;28;98253;-77
2022/04/03 20:39:53;;;;;;;14.93;6.37;;;0.90;90.80;;;-1.42;69.05;100339.75;10389814;28;98414;-76
2022/04/03 20:44:56;;;;;;;11.80;6.33;;;0.90;90.50;;;-1.47;70.10;100339.16;10379142;28;96666;-76
2022/04/03 20:49:59;;;;;;;11.20;5.47;;;0.90;91.20;;;-1.55;70.40;100345.75;10379510;27;97053;-78
2022/04/03 20:55:03;;;;;;;8.83;4.20;;;0.70;91.20;;;-1.66;70.70;100352.41;10375858;28;96538;-77
2022/04/03 21:00:09;;;;;;;8.00;4.10;;;0.70;91.90;;;-1.74;71.00;100364.16;10393246;28;96545;-78
2022/04/03 21:05:12;;;;;;;9.73;4.10;;;0.60;91.80;;;-1.82;71.31;100366.38;10375379;28;98084;-77